Terminal Aerodrome Forecast
Issued by NWS Wilmington, OH

Current Version | Previous Version | Graphics & Text | Print | Product List | Glossary On
Versions: 1 2 3 4 5 6 7 8 9 10 11 12 13 14 15 16 17 18 19 20 21 22 23 24 25 26 27
000
FTUS41 KILN 221100
TAFCVG
TAF
KCVG 221135Z 2212/2318 07003KT P6SM FEW060
      TEMPO 2212/2213 5SM BR
     FM221400 20006KT P6SM SCT040
     FM230000 VRB03KT P6SM SCT250
     FM230700 23005KT P6SM SCT100 BKN200
     FM231400 27005KT 5SM -SHRA BR VCTS OVC050CB=

USA.gov is the U.S. government's official web portal to all federal, state and local government web resources and services.